createdAt,value
2023-05-28T00:01:11.134Z,2.90
2023-05-28T00:03:44.641Z,1.63
2023-05-28T00:06:18.109Z,2.73
2023-05-28T00:08:51.513Z,1.80
2023-05-28T00:11:24.931Z,1.57
2023-05-28T00:13:58.198Z,2.20
2023-05-28T00:16:31.530Z,1.60
2023-05-28T00:19:05.623Z,2.23
2023-05-28T00:21:38.823Z,2.43
2023-05-28T00:24:12.084Z,1.90
2023-05-28T00:26:45.336Z,1.70
2023-05-28T00:29:18.611Z,1.20
2023-05-28T00:31:52.520Z,2.60
2023-05-28T00:34:26.659Z,1.90
2023-05-28T00:36:59.922Z,1.63
2023-05-28T00:39:33.181Z,1.93
2023-05-28T00:42:11.652Z,1.53
2023-05-28T00:44:46.012Z,2.10
2023-05-28T00:47:19.366Z,1.83
2023-05-28T00:49:56.700Z,2.70
2023-05-28T00:52:30.048Z,1.77
2023-05-28T00:55:03.550Z,2.37
2023-05-28T00:57:37.523Z,2.33
2023-05-28T01:00:11.151Z,1.80
2023-05-28T01:02:44.451Z,1.40
2023-05-28T01:05:18.372Z,2.50
2023-05-28T01:07:52.146Z,1.90
2023-05-28T01:10:25.786Z,1.67
2023-05-28T01:13:00.859Z,2.43
2023-05-28T01:15:34.223Z,2.20
2023-05-28T01:18:09.428Z,2.97
2023-05-28T01:20:42.808Z,2.60
2023-05-28T01:23:21.722Z,2.90
2023-05-28T01:25:56.783Z,2.53
2023-05-28T01:28:30.009Z,3.53
2023-05-28T01:31:03.403Z,2.27
2023-05-28T01:33:36.688Z,2.30
2023-05-28T01:36:22.243Z,2.03
2023-05-28T01:39:00.229Z,2.37
2023-05-28T01:41:33.683Z,1.63
2023-05-28T01:44:08.126Z,3.60
2023-05-28T01:46:42.875Z,2.57
2023-05-28T01:49:16.347Z,1.50
2023-05-28T01:51:49.627Z,3.00
2023-05-28T01:54:23.440Z,1.87
2023-05-28T01:56:56.706Z,1.77
2023-05-28T01:59:30.157Z,1.47
2023-05-28T02:02:03.489Z,2.30
2023-05-28T02:04:36.799Z,2.60
2023-05-28T02:07:10.233Z,3.30
2023-05-28T02:09:43.485Z,2.37
2023-05-28T02:12:17.013Z,2.27
2023-05-28T02:14:50.376Z,3.00
2023-05-28T02:17:23.662Z,1.70
2023-05-28T02:19:56.924Z,2.57
2023-05-28T02:22:30.246Z,2.20
2023-05-28T02:25:03.600Z,1.97
2023-05-28T02:27:37.036Z,2.47
2023-05-28T02:30:14.692Z,1.53
2023-05-28T02:32:48.009Z,1.43
2023-05-28T02:35:22.563Z,2.10
2023-05-28T02:37:55.806Z,2.43
2023-05-28T02:40:29.033Z,1.70
2023-05-28T02:43:02.284Z,2.30
2023-05-28T02:45:35.701Z,2.27
2023-05-28T02:48:08.989Z,1.40
2023-05-28T02:50:42.307Z,1.40
2023-05-28T02:53:15.895Z,2.60
2023-05-28T02:55:49.310Z,2.00
2023-05-28T02:58:22.757Z,1.93
2023-05-28T03:00:56.356Z,1.63
2023-05-28T03:03:29.791Z,1.87
2023-05-28T03:06:03.051Z,1.50
2023-05-28T03:08:36.315Z,1.77
2023-05-28T03:11:09.523Z,1.10
2023-05-28T03:13:42.786Z,1.67
2023-05-28T03:16:17.383Z,1.30
2023-05-28T03:18:50.643Z,1.57
2023-05-28T03:21:23.863Z,1.40
2023-05-28T03:23:57.105Z,2.33
2023-05-28T03:26:30.682Z,1.80
2023-05-28T03:29:04.089Z,2.27
2023-05-28T03:31:44.817Z,1.43
2023-05-28T03:34:19.421Z,1.70
2023-05-28T03:36:52.857Z,1.50
2023-05-28T03:39:26.803Z,1.60
2023-05-28T03:42:00.062Z,2.27
2023-05-28T03:44:33.411Z,2.00
2023-05-28T03:47:06.825Z,1.70
2023-05-28T03:49:40.418Z,2.90
2023-05-28T03:52:13.803Z,2.27
2023-05-28T03:54:47.089Z,1.43
2023-05-28T03:57:20.356Z,2.10
2023-05-28T03:59:56.709Z,2.40
2023-05-28T04:02:30.104Z,1.47
2023-05-28T04:05:03.528Z,1.90
2023-05-28T04:07:36.897Z,1.70
2023-05-28T04:10:13.248Z,2.40
2023-05-28T04:12:46.504Z,1.43
2023-05-28T04:15:19.970Z,1.10
2023-05-28T04:17:53.274Z,1.50
2023-05-28T04:20:26.707Z,1.90
2023-05-28T04:22:59.996Z,1.77
2023-05-28T04:25:33.671Z,1.73
2023-05-28T04:28:07.148Z,1.67
2023-05-28T04:30:40.456Z,1.83
2023-05-28T04:33:17.250Z,1.30
2023-05-28T04:35:51.833Z,2.30
2023-05-28T04:38:25.812Z,1.93
2023-05-28T04:41:01.087Z,3.03
2023-05-28T04:43:34.431Z,2.27
2023-05-28T04:46:09.604Z,2.57
2023-05-28T04:48:42.906Z,2.53
2023-05-28T04:51:16.243Z,2.07
2023-05-28T04:53:49.787Z,1.93
2023-05-28T04:56:23.474Z,3.03
2023-05-28T04:58:57.112Z,1.60
2023-05-28T05:01:31.074Z,3.30
2023-05-28T05:04:04.565Z,2.20
2023-05-28T05:06:37.860Z,1.80
2023-05-28T05:09:11.151Z,2.30
2023-05-28T05:11:44.400Z,2.93
2023-05-28T05:14:19.022Z,2.77
2023-05-28T05:16:54.144Z,2.10
2023-05-28T05:19:27.405Z,2.37
2023-05-28T05:22:02.812Z,2.40
2023-05-28T05:24:36.863Z,2.20
2023-05-28T05:27:10.174Z,2.00
2023-05-28T05:29:43.723Z,2.27
2023-05-28T05:32:17.168Z,1.50
2023-05-28T05:34:50.395Z,3.17
2023-05-28T05:37:24.297Z,1.90
2023-05-28T05:39:57.543Z,2.40
2023-05-28T05:42:30.791Z,1.97
2023-05-28T05:45:04.143Z,2.27
2023-05-28T05:47:39.044Z,2.90
2023-05-28T05:50:16.476Z,2.10
2023-05-28T05:52:49.684Z,2.57
2023-05-28T05:55:22.936Z,3.27
2023-05-28T05:57:57.962Z,2.70
2023-05-28T06:00:31.281Z,2.90
2023-05-28T06:03:04.658Z,2.10
2023-05-28T06:05:37.967Z,2.90
2023-05-28T06:08:11.277Z,2.23
2023-05-28T06:10:44.487Z,3.10
2023-05-28T06:13:17.757Z,2.10
2023-05-28T06:15:51.107Z,3.57
2023-05-28T06:18:24.975Z,1.80
2023-05-28T06:20:58.353Z,1.73
2023-05-28T06:23:31.754Z,2.07
2023-05-28T06:26:06.134Z,2.73
2023-05-28T06:28:39.375Z,2.73
2023-05-28T06:31:13.221Z,2.20
2023-05-28T06:33:46.644Z,3.07
2023-05-28T06:36:20.181Z,2.93
2023-05-28T06:38:53.501Z,2.20
2023-05-28T06:41:26.760Z,2.63
2023-05-28T06:44:00.047Z,1.73
2023-05-28T06:46:33.661Z,1.90
2023-05-28T06:49:07.364Z,2.40
2023-05-28T06:51:40.654Z,1.77
2023-05-28T06:54:14.222Z,1.90
2023-05-28T06:56:47.445Z,2.27
2023-05-28T06:59:20.933Z,3.10
2023-05-28T07:01:54.234Z,2.20
2023-05-28T07:04:29.358Z,2.93
2023-05-28T07:07:04.402Z,2.30
2023-05-28T07:09:37.724Z,2.50
2023-05-28T07:12:10.970Z,1.90
2023-05-28T07:14:44.264Z,2.97
2023-05-28T07:17:17.579Z,4.63
2023-05-28T07:19:50.929Z,2.90
2023-05-28T07:22:25.299Z,2.23
2023-05-28T07:24:58.541Z,2.90
2023-05-28T07:27:31.903Z,2.90
2023-05-28T07:30:05.327Z,1.97
2023-05-28T07:32:38.901Z,2.00
2023-05-28T07:35:12.643Z,2.40
2023-05-28T07:37:45.944Z,1.80
2023-05-28T07:40:19.451Z,2.70
2023-05-28T07:42:52.762Z,2.00
2023-05-28T07:45:26.131Z,2.23
2023-05-28T07:47:59.493Z,2.40
2023-05-28T07:50:32.855Z,1.70
2023-05-28T07:53:07.043Z,2.27
2023-05-28T07:55:40.770Z,2.53
2023-05-28T07:58:14.125Z,1.87
2023-05-28T08:00:47.939Z,2.50
2023-05-28T08:03:21.323Z,2.20
2023-05-28T08:05:55.133Z,1.80
2023-05-28T08:08:29.988Z,1.93
2023-05-28T08:11:03.768Z,3.20
2023-05-28T08:13:36.999Z,1.77
2023-05-28T08:16:13.297Z,1.60
2023-05-28T08:18:46.596Z,1.77
2023-05-28T08:21:19.863Z,1.83
2023-05-28T08:23:53.130Z,3.17
2023-05-28T08:26:26.661Z,3.10
2023-05-28T08:28:59.904Z,1.60
2023-05-28T08:31:33.790Z,2.10
2023-05-28T08:34:07.206Z,1.50
2023-05-28T08:36:40.538Z,1.73
2023-05-28T08:39:15.017Z,2.17
2023-05-28T08:41:48.684Z,1.80
2023-05-28T08:44:22.154Z,2.50
2023-05-28T08:46:56.424Z,2.20
2023-05-28T08:49:33.514Z,1.90
2023-05-28T08:52:07.141Z,2.00
2023-05-28T08:54:41.080Z,1.60
2023-05-28T08:57:14.595Z,1.53
2023-05-28T08:59:49.053Z,1.97
2023-05-28T09:02:26.004Z,1.93
2023-05-28T09:04:59.301Z,2.13
2023-05-28T09:07:35.861Z,1.67
2023-05-28T09:10:13.519Z,1.30
2023-05-28T09:13:03.843Z,2.00
2023-05-28T09:15:42.986Z,2.30
2023-05-28T09:18:20.808Z,3.27
2023-05-28T09:20:54.409Z,2.30
2023-05-28T09:23:29.525Z,2.20
2023-05-28T09:26:02.847Z,2.73
2023-05-28T09:28:36.121Z,1.83
2023-05-28T09:31:09.378Z,2.57
2023-05-28T09:33:48.939Z,2.70
2023-05-28T09:36:22.244Z,2.13
2023-05-28T09:38:55.576Z,2.33
2023-05-28T09:41:35.235Z,1.80
2023-05-28T09:44:11.828Z,2.10
2023-05-28T09:46:48.515Z,1.90
2023-05-28T09:49:21.835Z,2.10
2023-05-28T09:51:58.221Z,2.30
2023-05-28T09:54:33.125Z,2.33
2023-05-28T09:57:08.516Z,2.10
2023-05-28T09:59:42.176Z,1.70
2023-05-28T10:02:29.257Z,2.10
2023-05-28T10:05:04.166Z,2.10
2023-05-28T10:07:39.389Z,1.93
2023-05-28T10:10:14.082Z,2.27
2023-05-28T10:12:47.621Z,2.13
2023-05-28T10:15:21.257Z,1.90
2023-05-28T10:17:54.795Z,2.10
2023-05-28T10:20:28.157Z,2.40
2023-05-28T10:23:02.110Z,1.90
2023-05-28T10:25:35.375Z,1.90
2023-05-28T10:28:08.926Z,2.63
2023-05-28T10:30:42.314Z,2.50
2023-05-28T10:33:19.075Z,2.87
2023-05-28T10:35:59.208Z,1.67
2023-05-28T10:38:32.454Z,1.83
2023-05-28T10:41:05.802Z,1.73
2023-05-28T10:43:46.775Z,1.73
2023-05-28T10:46:21.499Z,2.00
2023-05-28T10:49:13.370Z,1.77
2023-05-28T10:52:03.589Z,2.43
2023-05-28T10:54:41.000Z,2.30
2023-05-28T10:57:20.317Z,2.20
2023-05-28T11:00:00.454Z,2.20
2023-05-28T11:02:36.862Z,2.10
2023-05-28T11:05:10.473Z,2.60
2023-05-28T11:07:44.131Z,2.60
2023-05-28T11:10:17.821Z,2.40
2023-05-28T11:12:51.999Z,2.37
2023-05-28T11:15:25.263Z,1.40
2023-05-28T11:17:58.527Z,2.40
2023-05-28T11:20:31.958Z,2.20
2023-05-28T11:23:19.188Z,1.67
2023-05-28T11:25:54.968Z,2.40
2023-05-28T11:28:32.873Z,2.20
2023-05-28T11:31:06.204Z,1.83
2023-05-28T11:33:39.537Z,1.60
2023-05-28T11:36:15.938Z,1.90
2023-05-28T11:38:49.254Z,2.50
2023-05-28T11:41:26.480Z,1.60
2023-05-28T11:43:59.925Z,1.53
2023-05-28T11:46:33.168Z,1.50
2023-05-28T11:49:06.473Z,2.03
2023-05-28T11:51:39.907Z,2.50
2023-05-28T11:54:13.132Z,1.87
2023-05-28T11:56:49.472Z,2.30
2023-05-28T11:59:27.124Z,3.40
2023-05-28T12:02:14.044Z,1.40
2023-05-28T12:05:00.170Z,2.07
2023-05-28T12:07:34.276Z,1.90
2023-05-28T12:10:11.425Z,1.63
2023-05-28T12:12:45.582Z,2.30
2023-05-28T12:15:19.584Z,2.00
2023-05-28T12:17:57.761Z,2.30
2023-05-28T12:20:32.391Z,2.23
2023-05-28T12:23:08.425Z,1.70
2023-05-28T12:25:45.007Z,1.37
2023-05-28T12:28:19.260Z,2.07
2023-05-28T12:30:55.450Z,2.00
2023-05-28T12:33:29.080Z,1.50
2023-05-28T12:36:02.347Z,2.17
2023-05-28T12:38:35.753Z,1.70
2023-05-28T12:41:09.030Z,1.70
2023-05-28T12:43:42.230Z,2.43
2023-05-28T12:46:15.593Z,1.60
2023-05-28T12:48:48.857Z,2.37
2023-05-28T12:51:22.169Z,2.03
2023-05-28T12:53:55.404Z,2.70
2023-05-28T12:56:28.856Z,1.90
2023-05-28T12:59:02.332Z,1.93
2023-05-28T13:01:35.727Z,2.00
2023-05-28T13:04:09.004Z,1.60
2023-05-28T13:06:43.056Z,1.93
2023-05-28T13:09:17.278Z,1.73
2023-05-28T13:11:50.638Z,2.67
2023-05-28T13:14:23.930Z,1.50
2023-05-28T13:16:57.270Z,2.40
2023-05-28T13:19:30.865Z,1.80
2023-05-28T13:22:04.126Z,2.53
2023-05-28T13:24:46.636Z,1.90
2023-05-28T13:27:21.046Z,1.90
2023-05-28T13:29:54.269Z,1.60
2023-05-28T13:32:28.056Z,1.70
2023-05-28T13:35:01.413Z,1.50
2023-05-28T13:37:34.964Z,2.90
2023-05-28T13:40:14.529Z,1.90
2023-05-28T13:42:50.185Z,2.57
2023-05-28T13:45:23.550Z,1.70
2023-05-28T13:47:57.374Z,1.93
2023-05-28T13:50:30.795Z,1.83
2023-05-28T13:53:04.231Z,1.70
2023-05-28T13:55:37.483Z,1.83
2023-05-28T13:58:10.806Z,1.80
2023-05-28T14:00:44.153Z,1.73
2023-05-28T14:03:17.879Z,2.00
2023-05-28T14:05:51.289Z,1.70
2023-05-28T14:08:25.054Z,2.03
2023-05-28T14:10:58.392Z,2.10
2023-05-28T14:13:32.825Z,2.23
2023-05-28T14:16:06.370Z,2.20
2023-05-28T14:18:39.555Z,2.50
2023-05-28T14:21:12.810Z,1.63
2023-05-28T14:23:46.145Z,2.07
2023-05-28T14:26:19.389Z,2.20
2023-05-28T14:28:52.705Z,2.67
2023-05-28T14:31:25.970Z,2.50
2023-05-28T14:33:59.503Z,1.50
2023-05-28T14:36:33.067Z,2.03
2023-05-28T14:39:06.367Z,1.83
2023-05-28T14:41:39.616Z,1.80
2023-05-28T14:44:12.954Z,2.23
2023-05-28T14:46:46.237Z,1.97
2023-05-28T14:49:19.470Z,2.33
2023-05-28T14:51:56.454Z,2.30
2023-05-28T14:54:29.726Z,2.30
2023-05-28T14:57:03.128Z,2.63
2023-05-28T14:59:36.794Z,2.30
2023-05-28T15:02:10.194Z,2.33
2023-05-28T15:04:45.334Z,1.80
2023-05-28T15:07:18.867Z,2.47
2023-05-28T15:09:52.278Z,1.93
2023-05-28T15:12:25.889Z,1.77
2023-05-28T15:14:59.179Z,2.57
2023-05-28T15:17:32.559Z,2.70
2023-05-28T15:20:06.358Z,1.80
2023-05-28T15:22:39.838Z,1.93
2023-05-28T15:25:13.374Z,2.50
2023-05-28T15:27:47.634Z,2.20
2023-05-28T15:30:21.711Z,2.30
2023-05-28T15:32:59.325Z,1.80
2023-05-28T15:35:32.896Z,2.77
2023-05-28T15:38:06.226Z,2.83
2023-05-28T15:40:39.642Z,2.67
2023-05-28T15:43:12.921Z,1.93
2023-05-28T15:45:46.228Z,1.93
2023-05-28T15:48:19.496Z,3.23
2023-05-28T15:50:52.779Z,3.13
2023-05-28T15:53:27.449Z,2.20
2023-05-28T15:56:00.712Z,2.60
2023-05-28T15:58:33.988Z,1.77
2023-05-28T16:01:07.638Z,2.63
2023-05-28T16:03:41.407Z,2.20
2023-05-28T16:06:14.914Z,2.00
2023-05-28T16:08:48.179Z,2.37
2023-05-28T16:11:23.706Z,2.37
2023-05-28T16:13:58.001Z,2.03
2023-05-28T16:16:31.595Z,2.37
2023-05-28T16:19:04.991Z,2.23
2023-05-28T16:21:40.789Z,2.33
2023-05-28T16:24:14.069Z,2.70
2023-05-28T16:26:49.667Z,2.90
2023-05-28T16:29:23.027Z,2.13
2023-05-28T16:31:56.418Z,1.90
2023-05-28T16:34:31.098Z,2.60
2023-05-28T16:37:04.575Z,1.87
2023-05-28T16:39:37.934Z,1.73
2023-05-28T16:42:11.529Z,1.80
2023-05-28T16:44:44.884Z,2.83
2023-05-28T16:47:18.479Z,2.17
2023-05-28T16:49:51.739Z,1.67
2023-05-28T16:52:31.280Z,2.40
2023-05-28T16:55:05.190Z,2.10
2023-05-28T16:57:38.496Z,2.30
2023-05-28T17:00:14.328Z,2.20
2023-05-28T17:02:50.555Z,2.63
2023-05-28T17:05:23.967Z,2.00
2023-05-28T17:07:57.287Z,2.93
2023-05-28T17:10:30.655Z,1.80
2023-05-28T17:13:04.822Z,2.90
2023-05-28T17:15:38.030Z,2.10
2023-05-28T17:18:11.306Z,1.70
2023-05-28T17:20:45.117Z,2.97
2023-05-28T17:23:18.646Z,2.63
2023-05-28T17:25:51.951Z,2.70
2023-05-28T17:28:26.318Z,1.90
2023-05-28T17:31:00.030Z,2.27
2023-05-28T17:33:33.356Z,3.50
2023-05-28T17:36:06.773Z,1.97
2023-05-28T17:38:40.038Z,2.27
2023-05-28T17:41:16.514Z,2.23
2023-05-28T17:43:49.750Z,2.73
2023-05-28T17:46:30.937Z,2.43
2023-05-28T17:49:04.574Z,2.67
2023-05-28T17:51:38.197Z,2.33
2023-05-28T17:54:12.625Z,2.33
2023-05-28T17:56:45.878Z,2.30
2023-05-28T17:59:19.235Z,2.40
2023-05-28T18:01:52.646Z,2.60
2023-05-28T18:04:25.964Z,1.90
2023-05-28T18:06:59.225Z,2.10
2023-05-28T18:09:32.483Z,2.23
2023-05-28T18:12:07.004Z,2.53
2023-05-28T18:14:40.601Z,3.70
2023-05-28T18:17:13.869Z,2.20
2023-05-28T18:19:47.144Z,2.60
2023-05-28T18:22:21.726Z,2.40
2023-05-28T18:24:55.264Z,2.47
2023-05-28T18:27:28.493Z,1.90
2023-05-28T18:30:01.825Z,2.33
2023-05-28T18:32:35.476Z,2.77
2023-05-28T18:35:08.844Z,2.40
2023-05-28T18:37:42.105Z,2.47
2023-05-28T18:40:15.422Z,2.57
2023-05-28T18:42:48.761Z,3.17
2023-05-28T18:45:22.446Z,3.50
2023-05-28T18:47:55.748Z,3.37
2023-05-28T18:50:29.049Z,3.87
2023-05-28T18:53:02.339Z,3.73
2023-05-28T18:55:35.654Z,4.33
2023-05-28T18:58:08.980Z,4.47
2023-05-28T19:00:42.357Z,6.33
2023-05-28T19:03:15.666Z,15.47
2023-05-28T19:05:49.001Z,14.60
2023-05-28T19:08:22.301Z,9.00
2023-05-28T19:10:55.758Z,7.13
2023-05-28T19:13:29.165Z,4.93
2023-05-28T19:16:02.452Z,3.70
2023-05-28T19:18:35.800Z,3.27
2023-05-28T19:21:09.028Z,3.47
2023-05-28T19:23:42.343Z,3.33
2023-05-28T19:26:15.615Z,4.03
2023-05-28T19:28:48.893Z,4.17
2023-05-28T19:31:25.340Z,6.23
2023-05-28T19:33:58.638Z,6.40
2023-05-28T19:36:31.919Z,8.67
2023-05-28T19:39:06.482Z,8.30
2023-05-28T19:41:39.961Z,4.53
2023-05-28T19:44:13.240Z,6.87
2023-05-28T19:46:46.607Z,4.73
2023-05-28T19:49:19.801Z,4.50
2023-05-28T19:51:53.068Z,3.43
2023-05-28T19:54:26.518Z,3.83
2023-05-28T19:56:59.759Z,3.73
2023-05-28T19:59:36.990Z,3.77
2023-05-28T20:02:10.306Z,4.13
2023-05-28T20:04:47.923Z,4.80
2023-05-28T20:07:21.322Z,5.40
2023-05-28T20:09:54.636Z,6.47
2023-05-28T20:12:27.845Z,9.00
2023-05-28T20:15:02.672Z,5.33
2023-05-28T20:17:35.991Z,4.80
2023-05-28T20:20:10.567Z,5.30
2023-05-28T20:22:44.034Z,4.70
2023-05-28T20:25:17.435Z,4.70
2023-05-28T20:27:51.592Z,4.07
2023-05-28T20:30:24.936Z,3.73
2023-05-28T20:32:59.638Z,4.70
2023-05-28T20:35:34.243Z,4.77
2023-05-28T20:38:07.701Z,4.30
2023-05-28T20:40:41.005Z,5.83
2023-05-28T20:43:14.467Z,4.50
2023-05-28T20:45:50.281Z,3.80
2023-05-28T20:48:23.612Z,4.23
2023-05-28T20:50:56.936Z,3.87
2023-05-28T20:53:30.240Z,4.40
2023-05-28T20:56:03.700Z,3.67
2023-05-28T20:58:38.966Z,4.50
2023-05-28T21:01:12.321Z,4.23
2023-05-28T21:03:45.660Z,3.10
2023-05-28T21:06:18.915Z,3.00
2023-05-28T21:08:52.132Z,3.10
2023-05-28T21:11:26.986Z,3.80
2023-05-28T21:14:00.613Z,2.50
2023-05-28T21:16:33.985Z,3.23
2023-05-28T21:19:07.248Z,3.83
2023-05-28T21:21:40.517Z,3.00
2023-05-28T21:24:13.836Z,2.90
2023-05-28T21:26:47.066Z,2.70
2023-05-28T21:29:20.336Z,3.50
2023-05-28T21:31:53.611Z,2.80
2023-05-28T21:34:26.857Z,3.70
2023-05-28T21:37:00.127Z,3.03
2023-05-28T21:39:36.392Z,3.37
2023-05-28T21:42:09.620Z,3.80
2023-05-28T21:44:42.860Z,3.67
2023-05-28T21:47:16.113Z,2.17
2023-05-28T21:49:49.376Z,2.70
2023-05-28T21:52:25.839Z,2.73
2023-05-28T21:54:59.175Z,2.70
2023-05-28T21:57:32.490Z,3.83
2023-05-28T22:00:12.430Z,2.40
2023-05-28T22:02:45.778Z,2.50
2023-05-28T22:05:22.639Z,2.67
2023-05-28T22:07:57.371Z,2.73
2023-05-28T22:10:30.749Z,2.37
2023-05-28T22:13:04.104Z,3.07
2023-05-28T22:15:37.349Z,3.30
2023-05-28T22:18:14.711Z,2.70
2023-05-28T22:20:51.187Z,2.63
2023-05-28T22:23:24.467Z,2.50
2023-05-28T22:25:57.774Z,3.20
2023-05-28T22:28:31.070Z,2.07
2023-05-28T22:31:04.389Z,2.70
2023-05-28T22:33:37.799Z,2.10
2023-05-28T22:36:11.112Z,2.40
2023-05-28T22:38:44.349Z,2.40
2023-05-28T22:41:17.606Z,2.50
2023-05-28T22:43:50.890Z,1.70
2023-05-28T22:46:24.193Z,2.13
2023-05-28T22:48:58.674Z,2.43
2023-05-28T22:51:33.041Z,2.20
2023-05-28T22:54:09.621Z,2.40
2023-05-28T22:56:45.109Z,2.60
2023-05-28T22:59:18.658Z,2.00
2023-05-28T23:01:52.038Z,2.17
2023-05-28T23:04:25.929Z,1.80
2023-05-28T23:06:59.357Z,2.67
2023-05-28T23:09:32.726Z,2.60
2023-05-28T23:12:06.762Z,2.43
2023-05-28T23:14:40.074Z,2.30
2023-05-28T23:17:18.513Z,2.47
2023-05-28T23:19:54.386Z,2.10
2023-05-28T23:22:27.643Z,2.50
2023-05-28T23:25:00.968Z,2.70
2023-05-28T23:27:34.308Z,1.90
2023-05-28T23:30:07.944Z,2.07
2023-05-28T23:32:41.551Z,3.33
2023-05-28T23:35:14.878Z,4.80
2023-05-28T23:37:48.138Z,4.13
2023-05-28T23:40:21.409Z,4.27
2023-05-28T23:42:54.728Z,3.70
2023-05-28T23:45:28.026Z,3.40
2023-05-28T23:48:01.510Z,4.03
2023-05-28T23:50:35.360Z,3.60
2023-05-28T23:53:08.631Z,3.47
2023-05-28T23:55:41.863Z,3.60
2023-05-28T23:58:15.490Z,4.10
